Impacts METAR Board
IDs:

KATL - Atlanta/Hartsfield I, GA, US

Updated at: 1100 UTC 30 Oct 2020
Potential Impact None Slight Moderate High
Time 29/23Z 30/00Z 30/01Z 30/02Z 30/03Z 30/04Z 30/05Z 30/06Z 30/07Z 30/08Z 30/09Z 30/10Z 30/11Z
Temp73 70 63 57 53 51 50 50 50 51 51 51 51
Dewpt54 48 45 38 39 39 40 42 43 43 44 44 45
Altim29.65 29.68 29.74 29.80 29.84 29.89 29.90 29.90 29.92 29.92 29.94 29.96 30.00
VIS10 10 10 10 10 10 10 10 10 10 10 10 10
CIG-- -- -- 55 -- 30 25 20 20 22 20 20 20
CoverSCTSCTSCTBKNSCTBKNBKNOVCOVCOVCOVCOVCOVC
FltCatVFRVFRVFRVFRVFRMVFRMVFRMVFRMVFRMVFRMVFRMVFRMVFR
WX--------------------------
WDir250240260270280280280290290280290270290
WSpd11 10 18 22 17 21 16 17 13 14 13 9 11
WGst19 25 31 37 27 30 24 23 25 -- -- 17 --
Raw hourly METARs
KATL 292252Z 25011G19KT 10SM SCT055 SCT250 23/12 A2965 RMK AO2 PK WND 22026/2200 SLP031 T02280122
KATL 292352Z 24010G25KT 10SM SCT055 21/09 A2968 RMK AO2 PK WND 28029/2326 SLP043 T02110089 10278 20211 53018
KATL 300052Z 26018G31KT 10SM FEW055 SCT070 17/07 A2974 RMK AO2 PK WND 27036/0017 SLP063 T01720072
KATL 300152Z 27022G37KT 10SM SCT045 BKN055 14/03 A2980 RMK AO2 PK WND 28039/0113 SLP085 T01390033
KATL 300252Z 28017G27KT 10SM SCT040 12/04 A2984 RMK AO2 PK WND 28030/0153 SLP099 T01170039 51051
KATL 300352Z 28021G30KT 10SM BKN030 11/04 A2989 RMK AO2 PK WND 29030/0349 SLP116 T01060039
KATL 300452Z 28016G24KT 10SM BKN025 10/04 A2990 RMK AO2 PK WND 29028/0354 SLP119 T01000044 402780100
KATL 300552Z 29017G23KT 10SM FEW015 OVC020 10/06 A2990 RMK AO2 SLP118 BINOVC T01000056 10211 20100 51019
KATL 300652Z 29013G25KT 10SM FEW015 OVC020 10/06 A2992 RMK AO2 PK WND 31028/0623 SLP125 T01000061
KATL 300752Z 28014KT 10SM BKN022 OVC030 11/06 A2992 RMK AO2 SLP127 T01060061
KATL 300852Z 29013KT 10SM BKN020 OVC025 11/07 A2994 RMK AO2 SLP131 T01060067 51013
KATL 300952Z 27009G17KT 10SM FEW015 BKN020 OVC027 11/07 A2996 RMK AO2 SLP140 T01060067
KATL 301052Z 29011KT 10SM FEW015 OVC020 11/07 A3000 RMK AO2 SLP155 T01060072



Page loaded:  11:13 UTC  |   04:13 AM Pacific  |   05:13 AM Mountain  |   06:13 AM Central  |   07:13 AM Eastern

 

ADVISORIES

FORECASTS

FORECASTS

OBSERVATIONS

USER TOOLS

ABOUT US